sensor_id;sensor_type;location;lat;lon;timestamp;P1;durP1;ratioP1;P2;durP2;ratioP2
20824;SDS011;10573;50.936;6.978;2023-02-03T00:00:48;14.03;;;4.57;;
20824;SDS011;10573;50.936;6.978;2023-02-03T00:03:13;10.23;;;4.27;;
20824;SDS011;10573;50.936;6.978;2023-02-03T00:05:38;9.30;;;4.70;;
20824;SDS011;10573;50.936;6.978;2023-02-03T00:08:06;10.47;;;4.50;;
20824;SDS011;10573;50.936;6.978;2023-02-03T00:10:33;13.45;;;4.47;;
20824;SDS011;10573;50.936;6.978;2023-02-03T00:13:00;9.70;;;4.28;;
20824;SDS011;10573;50.936;6.978;2023-02-03T00:15:26;10.98;;;3.70;;
20824;SDS011;10573;50.936;6.978;2023-02-03T00:17:52;14.60;;;4.67;;
20824;SDS011;10573;50.936;6.978;2023-02-03T00:20:18;8.35;;;4.10;;
20824;SDS011;10573;50.936;6.978;2023-02-03T00:22:43;9.48;;;4.18;;
20824;SDS011;10573;50.936;6.978;2023-02-03T00:25:09;12.43;;;3.87;;
20824;SDS011;10573;50.936;6.978;2023-02-03T00:27:34;11.80;;;4.10;;
20824;SDS011;10573;50.936;6.978;2023-02-03T00:30:00;11.55;;;3.92;;
20824;SDS011;10573;50.936;6.978;2023-02-03T00:32:26;12.60;;;3.83;;
20824;SDS011;10573;50.936;6.978;2023-02-03T00:34:51;12.05;;;4.00;;
20824;SDS011;10573;50.936;6.978;2023-02-03T00:37:16;10.57;;;3.43;;
20824;SDS011;10573;50.936;6.978;2023-02-03T00:39:42;9.98;;;3.75;;
20824;SDS011;10573;50.936;6.978;2023-02-03T00:42:10;10.43;;;3.70;;
20824;SDS011;10573;50.936;6.978;2023-02-03T00:44:35;8.80;;;3.38;;
20824;SDS011;10573;50.936;6.978;2023-02-03T00:47:01;9.83;;;3.23;;
20824;SDS011;10573;50.936;6.978;2023-02-03T00:49:26;10.67;;;3.77;;
20824;SDS011;10573;50.936;6.978;2023-02-03T00:51:52;8.90;;;2.95;;
20824;SDS011;10573;50.936;6.978;2023-02-03T00:54:17;8.82;;;3.10;;
20824;SDS011;10573;50.936;6.978;2023-02-03T00:56:43;11.20;;;3.63;;
20824;SDS011;10573;50.936;6.978;2023-02-03T00:59:08;10.73;;;2.92;;
20824;SDS011;10573;50.936;6.978;2023-02-03T01:01:34;8.45;;;3.28;;
20824;SDS011;10573;50.936;6.978;2023-02-03T01:04:00;10.77;;;3.17;;
20824;SDS011;10573;50.936;6.978;2023-02-03T01:06:26;6.63;;;2.67;;
20824;SDS011;10573;50.936;6.978;2023-02-03T01:08:52;9.25;;;2.95;;
20824;SDS011;10573;50.936;6.978;2023-02-03T01:11:19;7.43;;;2.63;;
20824;SDS011;10573;50.936;6.978;2023-02-03T01:13:49;8.00;;;3.05;;
20824;SDS011;10573;50.936;6.978;2023-02-03T01:16:16;8.50;;;2.93;;
20824;SDS011;10573;50.936;6.978;2023-02-03T01:18:44;8.52;;;2.65;;
20824;SDS011;10573;50.936;6.978;2023-02-03T01:21:15;9.68;;;3.15;;
20824;SDS011;10573;50.936;6.978;2023-02-03T01:23:43;9.32;;;2.53;;
20824;SDS011;10573;50.936;6.978;2023-02-03T01:26:16;8.93;;;2.67;;
20824;SDS011;10573;50.936;6.978;2023-02-03T01:28:43;6.83;;;2.73;;
20824;SDS011;10573;50.936;6.978;2023-02-03T01:31:15;9.02;;;3.03;;
20824;SDS011;10573;50.936;6.978;2023-02-03T01:33:42;8.23;;;2.43;;
20824;SDS011;10573;50.936;6.978;2023-02-03T01:36:11;9.03;;;2.43;;
20824;SDS011;10573;50.936;6.978;2023-02-03T01:38:37;9.50;;;2.47;;
20824;SDS011;10573;50.936;6.978;2023-02-03T01:41:04;6.63;;;2.50;;
20824;SDS011;10573;50.936;6.978;2023-02-03T01:43:32;8.13;;;2.70;;
20824;SDS011;10573;50.936;6.978;2023-02-03T01:46:01;10.80;;;3.00;;
20824;SDS011;10573;50.936;6.978;2023-02-03T01:48:30;8.90;;;2.90;;
20824;SDS011;10573;50.936;6.978;2023-02-03T01:50:57;7.10;;;3.00;;
20824;SDS011;10573;50.936;6.978;2023-02-03T01:53:26;6.57;;;2.72;;
20824;SDS011;10573;50.936;6.978;2023-02-03T01:55:51;8.00;;;2.72;;
20824;SDS011;10573;50.936;6.978;2023-02-03T01:58:19;8.27;;;2.67;;
20824;SDS011;10573;50.936;6.978;2023-02-03T02:00:48;12.95;;;2.80;;
20824;SDS011;10573;50.936;6.978;2023-02-03T02:03:14;6.90;;;2.27;;
20824;SDS011;10573;50.936;6.978;2023-02-03T02:05:47;7.28;;;2.60;;
20824;SDS011;10573;50.936;6.978;2023-02-03T02:08:17;9.20;;;2.85;;
20824;SDS011;10573;50.936;6.978;2023-02-03T02:10:46;7.68;;;2.33;;
20824;SDS011;10573;50.936;6.978;2023-02-03T02:13:12;12.27;;;2.55;;
20824;SDS011;10573;50.936;6.978;2023-02-03T02:18:21;8.25;;;2.67;;
20824;SDS011;10573;50.936;6.978;2023-02-03T02:23:57;6.53;;;2.10;;
20824;SDS011;10573;50.936;6.978;2023-02-03T02:26:38;7.72;;;2.20;;
20824;SDS011;10573;50.936;6.978;2023-02-03T02:29:22;6.43;;;2.10;;
20824;SDS011;10573;50.936;6.978;2023-02-03T02:32:11;6.93;;;2.20;;
20824;SDS011;10573;50.936;6.978;2023-02-03T02:43:01;7.35;;;2.35;;
20824;SDS011;10573;50.936;6.978;2023-02-03T02:48:36;9.03;;;2.00;;
20824;SDS011;10573;50.936;6.978;2023-02-03T02:51:05;7.85;;;2.10;;
20824;SDS011;10573;50.936;6.978;2023-02-03T02:53:35;6.63;;;1.85;;
20824;SDS011;10573;50.936;6.978;2023-02-03T02:56:05;8.27;;;2.25;;
20824;SDS011;10573;50.936;6.978;2023-02-03T02:58:34;5.28;;;1.92;;
20824;SDS011;10573;50.936;6.978;2023-02-03T03:01:02;8.43;;;2.20;;
20824;SDS011;10573;50.936;6.978;2023-02-03T03:03:28;8.60;;;2.40;;
20824;SDS011;10573;50.936;6.978;2023-02-03T03:05:55;8.33;;;2.10;;
20824;SDS011;10573;50.936;6.978;2023-02-03T03:08:26;7.53;;;2.20;;
20824;SDS011;10573;50.936;6.978;2023-02-03T03:10:56;7.53;;;2.40;;
20824;SDS011;10573;50.936;6.978;2023-02-03T03:13:24;11.63;;;2.30;;
20824;SDS011;10573;50.936;6.978;2023-02-03T03:15:55;7.63;;;2.35;;
20824;SDS011;10573;50.936;6.978;2023-02-03T03:18:29;8.52;;;2.33;;
20824;SDS011;10573;50.936;6.978;2023-02-03T03:20:58;6.38;;;2.08;;
20824;SDS011;10573;50.936;6.978;2023-02-03T03:23:31;7.50;;;2.25;;
20824;SDS011;10573;50.936;6.978;2023-02-03T03:26:03;6.70;;;2.53;;
20824;SDS011;10573;50.936;6.978;2023-02-03T03:28:37;6.03;;;2.35;;
20824;SDS011;10573;50.936;6.978;2023-02-03T03:31:09;7.53;;;2.03;;
20824;SDS011;10573;50.936;6.978;2023-02-03T03:33:35;6.63;;;2.30;;
20824;SDS011;10573;50.936;6.978;2023-02-03T03:36:02;11.60;;;2.30;;
20824;SDS011;10573;50.936;6.978;2023-02-03T03:41:11;5.13;;;2.30;;
20824;SDS011;10573;50.936;6.978;2023-02-03T03:43:43;8.85;;;2.50;;
20824;SDS011;10573;50.936;6.978;2023-02-03T03:46:12;8.80;;;2.38;;
20824;SDS011;10573;50.936;6.978;2023-02-03T03:51:25;7.53;;;3.10;;
20824;SDS011;10573;50.936;6.978;2023-02-03T03:53:55;9.40;;;2.50;;
20824;SDS011;10573;50.936;6.978;2023-02-03T03:56:26;6.35;;;2.47;;
20824;SDS011;10573;50.936;6.978;2023-02-03T03:58:56;10.35;;;2.80;;
20824;SDS011;10573;50.936;6.978;2023-02-03T04:01:26;7.40;;;2.17;;
20824;SDS011;10573;50.936;6.978;2023-02-03T04:03:54;8.88;;;2.45;;
20824;SDS011;10573;50.936;6.978;2023-02-03T04:06:23;6.75;;;2.75;;
20824;SDS011;10573;50.936;6.978;2023-02-03T04:08:48;8.15;;;2.60;;
20824;SDS011;10573;50.936;6.978;2023-02-03T04:11:14;11.23;;;2.50;;
20824;SDS011;10573;50.936;6.978;2023-02-03T04:13:59;7.65;;;2.70;;
20824;SDS011;10573;50.936;6.978;2023-02-03T04:16:25;6.90;;;2.10;;
20824;SDS011;10573;50.936;6.978;2023-02-03T04:18:50;6.63;;;2.17;;
20824;SDS011;10573;50.936;6.978;2023-02-03T04:21:15;6.57;;;2.53;;
20824;SDS011;10573;50.936;6.978;2023-02-03T04:23:41;6.13;;;2.57;;
20824;SDS011;10573;50.936;6.978;2023-02-03T04:26:06;9.25;;;2.35;;
20824;SDS011;10573;50.936;6.978;2023-02-03T04:28:31;8.40;;;2.43;;
20824;SDS011;10573;50.936;6.978;2023-02-03T04:30:59;7.38;;;2.22;;
20824;SDS011;10573;50.936;6.978;2023-02-03T04:33:25;8.95;;;2.65;;
20824;SDS011;10573;50.936;6.978;2023-02-03T04:35:50;6.72;;;2.17;;
20824;SDS011;10573;50.936;6.978;2023-02-03T04:38:16;10.47;;;2.67;;
20824;SDS011;10573;50.936;6.978;2023-02-03T04:40:41;8.20;;;2.50;;
20824;SDS011;10573;50.936;6.978;2023-02-03T04:43:09;7.18;;;2.38;;
20824;SDS011;10573;50.936;6.978;2023-02-03T04:45:35;9.38;;;2.05;;
20824;SDS011;10573;50.936;6.978;2023-02-03T04:48:01;7.20;;;2.22;;
20824;SDS011;10573;50.936;6.978;2023-02-03T04:50:28;9.75;;;2.30;;
20824;SDS011;10573;50.936;6.978;2023-02-03T04:52:54;5.60;;;2.13;;
20824;SDS011;10573;50.936;6.978;2023-02-03T04:55:19;9.17;;;2.57;;
20824;SDS011;10573;50.936;6.978;2023-02-03T04:57:44;7.27;;;2.40;;
20824;SDS011;10573;50.936;6.978;2023-02-03T05:00:10;6.83;;;2.10;;
20824;SDS011;10573;50.936;6.978;2023-02-03T05:02:36;7.38;;;2.88;;
20824;SDS011;10573;50.936;6.978;2023-02-03T05:05:01;7.70;;;2.30;;
20824;SDS011;10573;50.936;6.978;2023-02-03T05:07:27;4.53;;;2.00;;
20824;SDS011;10573;50.936;6.978;2023-02-03T05:09:52;6.40;;;2.07;;
20824;SDS011;10573;50.936;6.978;2023-02-03T05:12:17;10.63;;;2.40;;
20824;SDS011;10573;50.936;6.978;2023-02-03T05:14:43;4.90;;;1.90;;
20824;SDS011;10573;50.936;6.978;2023-02-03T05:17:08;8.23;;;2.00;;
20824;SDS011;10573;50.936;6.978;2023-02-03T05:19:33;6.67;;;1.77;;
20824;SDS011;10573;50.936;6.978;2023-02-03T05:21:59;7.53;;;2.30;;
20824;SDS011;10573;50.936;6.978;2023-02-03T05:24:24;9.33;;;2.13;;
20824;SDS011;10573;50.936;6.978;2023-02-03T05:26:50;8.67;;;2.30;;
20824;SDS011;10573;50.936;6.978;2023-02-03T05:29:15;11.73;;;2.53;;
20824;SDS011;10573;50.936;6.978;2023-02-03T05:31:40;9.70;;;2.23;;
20824;SDS011;10573;50.936;6.978;2023-02-03T05:34:06;8.73;;;2.28;;
20824;SDS011;10573;50.936;6.978;2023-02-03T05:36:31;9.57;;;2.10;;
20824;SDS011;10573;50.936;6.978;2023-02-03T05:38:57;4.90;;;1.80;;
20824;SDS011;10573;50.936;6.978;2023-02-03T05:41:23;10.05;;;2.42;;
20824;SDS011;10573;50.936;6.978;2023-02-03T05:44:08;7.15;;;1.80;;
20824;SDS011;10573;50.936;6.978;2023-02-03T05:46:34;8.00;;;2.30;;
20824;SDS011;10573;50.936;6.978;2023-02-03T05:48:59;7.13;;;2.13;;
20824;SDS011;10573;50.936;6.978;2023-02-03T05:51:24;7.63;;;2.20;;
20824;SDS011;10573;50.936;6.978;2023-02-03T05:53:50;9.70;;;1.80;;
20824;SDS011;10573;50.936;6.978;2023-02-03T05:56:17;6.85;;;2.00;;
20824;SDS011;10573;50.936;6.978;2023-02-03T05:58:42;8.73;;;1.87;;
20824;SDS011;10573;50.936;6.978;2023-02-03T06:01:07;7.97;;;1.63;;
20824;SDS011;10573;50.936;6.978;2023-02-03T06:03:33;7.43;;;1.87;;
20824;SDS011;10573;50.936;6.978;2023-02-03T06:05:58;5.18;;;1.58;;
20824;SDS011;10573;50.936;6.978;2023-02-03T06:08:24;11.70;;;2.00;;
20824;SDS011;10573;50.936;6.978;2023-02-03T06:10:55;6.90;;;1.77;;
20824;SDS011;10573;50.936;6.978;2023-02-03T06:13:22;6.93;;;1.48;;
20824;SDS011;10573;50.936;6.978;2023-02-03T06:15:48;7.63;;;1.50;;
20824;SDS011;10573;50.936;6.978;2023-02-03T06:18:14;7.13;;;1.50;;
20824;SDS011;10573;50.936;6.978;2023-02-03T06:20:39;9.10;;;1.70;;
20824;SDS011;10573;50.936;6.978;2023-02-03T06:23:05;7.27;;;1.90;;
20824;SDS011;10573;50.936;6.978;2023-02-03T06:25:30;8.60;;;1.80;;
20824;SDS011;10573;50.936;6.978;2023-02-03T06:27:57;8.90;;;1.98;;
20824;SDS011;10573;50.936;6.978;2023-02-03T06:30:23;6.80;;;1.70;;
20824;SDS011;10573;50.936;6.978;2023-02-03T06:32:49;7.63;;;1.53;;
20824;SDS011;10573;50.936;6.978;2023-02-03T06:35:14;6.45;;;1.58;;
20824;SDS011;10573;50.936;6.978;2023-02-03T06:37:40;6.43;;;1.60;;
20824;SDS011;10573;50.936;6.978;2023-02-03T06:40:06;3.70;;;1.10;;
20824;SDS011;10573;50.936;6.978;2023-02-03T06:42:32;8.30;;;1.70;;
20824;SDS011;10573;50.936;6.978;2023-02-03T06:44:58;5.97;;;1.30;;
20824;SDS011;10573;50.936;6.978;2023-02-03T06:47:23;6.80;;;1.60;;
20824;SDS011;10573;50.936;6.978;2023-02-03T06:49:48;6.57;;;1.50;;
20824;SDS011;10573;50.936;6.978;2023-02-03T06:52:14;6.33;;;1.30;;
20824;SDS011;10573;50.936;6.978;2023-02-03T06:54:39;7.25;;;1.40;;
20824;SDS011;10573;50.936;6.978;2023-02-03T06:57:05;7.05;;;1.77;;
20824;SDS011;10573;50.936;6.978;2023-02-03T06:59:31;7.25;;;1.83;;
20824;SDS011;10573;50.936;6.978;2023-02-03T07:01:56;7.37;;;1.50;;
20824;SDS011;10573;50.936;6.978;2023-02-03T07:04:22;6.97;;;1.60;;
20824;SDS011;10573;50.936;6.978;2023-02-03T07:06:47;7.88;;;1.40;;
20824;SDS011;10573;50.936;6.978;2023-02-03T07:09:13;5.97;;;1.90;;
20824;SDS011;10573;50.936;6.978;2023-02-03T07:11:39;6.53;;;1.40;;
20824;SDS011;10573;50.936;6.978;2023-02-03T07:14:04;6.03;;;2.03;;
20824;SDS011;10573;50.936;6.978;2023-02-03T07:16:30;5.28;;;1.45;;
20824;SDS011;10573;50.936;6.978;2023-02-03T07:18:56;6.30;;;1.85;;
20824;SDS011;10573;50.936;6.978;2023-02-03T07:21:22;7.50;;;1.52;;
20824;SDS011;10573;50.936;6.978;2023-02-03T07:23:48;6.93;;;1.55;;
20824;SDS011;10573;50.936;6.978;2023-02-03T07:26:14;11.93;;;2.08;;
20824;SDS011;10573;50.936;6.978;2023-02-03T07:28:40;8.10;;;1.67;;
20824;SDS011;10573;50.936;6.978;2023-02-03T07:31:05;4.50;;;1.63;;
20824;SDS011;10573;50.936;6.978;2023-02-03T07:33:34;6.57;;;1.52;;
20824;SDS011;10573;50.936;6.978;2023-02-03T07:36:00;4.13;;;1.70;;
20824;SDS011;10573;50.936;6.978;2023-02-03T07:38:27;7.15;;;1.40;;
20824;SDS011;10573;50.936;6.978;2023-02-03T07:40:53;6.73;;;1.70;;
20824;SDS011;10573;50.936;6.978;2023-02-03T07:43:19;6.30;;;1.40;;
20824;SDS011;10573;50.936;6.978;2023-02-03T07:45:44;12.60;;;1.80;;
20824;SDS011;10573;50.936;6.978;2023-02-03T07:48:11;5.18;;;1.40;;
20824;SDS011;10573;50.936;6.978;2023-02-03T07:50:37;7.70;;;1.50;;
20824;SDS011;10573;50.936;6.978;2023-02-03T07:53:03;5.93;;;1.60;;
20824;SDS011;10573;50.936;6.978;2023-02-03T07:55:29;7.05;;;1.58;;
20824;SDS011;10573;50.936;6.978;2023-02-03T07:57:56;6.95;;;1.67;;
20824;SDS011;10573;50.936;6.978;2023-02-03T08:00:22;8.43;;;1.90;;
20824;SDS011;10573;50.936;6.978;2023-02-03T08:02:48;5.07;;;1.20;;
20824;SDS011;10573;50.936;6.978;2023-02-03T08:05:14;6.43;;;1.53;;
20824;SDS011;10573;50.936;6.978;2023-02-03T08:07:41;5.93;;;1.35;;
20824;SDS011;10573;50.936;6.978;2023-02-03T08:10:07;7.45;;;1.60;;
20824;SDS011;10573;50.936;6.978;2023-02-03T08:12:33;7.55;;;1.42;;
20824;SDS011;10573;50.936;6.978;2023-02-03T08:14:59;4.70;;;1.45;;
20824;SDS011;10573;50.936;6.978;2023-02-03T08:17:24;7.80;;;1.42;;
20824;SDS011;10573;50.936;6.978;2023-02-03T08:19:50;8.60;;;1.53;;
20824;SDS011;10573;50.936;6.978;2023-02-03T08:22:15;5.30;;;1.27;;
20824;SDS011;10573;50.936;6.978;2023-02-03T08:24:41;4.80;;;1.33;;
20824;SDS011;10573;50.936;6.978;2023-02-03T08:27:10;8.67;;;1.30;;
20824;SDS011;10573;50.936;6.978;2023-02-03T08:29:36;8.07;;;1.80;;
20824;SDS011;10573;50.936;6.978;2023-02-03T08:32:02;4.00;;;1.37;;
20824;SDS011;10573;50.936;6.978;2023-02-03T08:34:27;4.60;;;1.20;;
20824;SDS011;10573;50.936;6.978;2023-02-03T08:36:53;4.77;;;1.23;;
20824;SDS011;10573;50.936;6.978;2023-02-03T08:39:18;4.75;;;1.40;;
20824;SDS011;10573;50.936;6.978;2023-02-03T08:41:44;5.67;;;1.50;;
20824;SDS011;10573;50.936;6.978;2023-02-03T08:44:09;8.07;;;1.33;;
20824;SDS011;10573;50.936;6.978;2023-02-03T08:46:35;6.35;;;1.38;;
20824;SDS011;10573;50.936;6.978;2023-02-03T08:49:01;3.75;;;1.23;;
20824;SDS011;10573;50.936;6.978;2023-02-03T08:51:27;4.83;;;1.30;;
20824;SDS011;10573;50.936;6.978;2023-02-03T08:53:54;5.95;;;1.30;;
20824;SDS011;10573;50.936;6.978;2023-02-03T08:56:19;5.27;;;1.20;;
20824;SDS011;10573;50.936;6.978;2023-02-03T08:58:45;3.30;;;1.40;;
20824;SDS011;10573;50.936;6.978;2023-02-03T09:01:11;5.27;;;1.63;;
20824;SDS011;10573;50.936;6.978;2023-02-03T09:03:39;8.23;;;1.52;;
20824;SDS011;10573;50.936;6.978;2023-02-03T09:06:05;4.05;;;1.55;;
20824;SDS011;10573;50.936;6.978;2023-02-03T09:08:32;3.65;;;1.30;;
20824;SDS011;10573;50.936;6.978;2023-02-03T09:10:58;5.28;;;1.63;;
20824;SDS011;10573;50.936;6.978;2023-02-03T09:13:23;6.13;;;1.30;;
20824;SDS011;10573;50.936;6.978;2023-02-03T09:15:49;5.27;;;1.40;;
20824;SDS011;10573;50.936;6.978;2023-02-03T09:18:15;8.63;;;1.57;;
20824;SDS011;10573;50.936;6.978;2023-02-03T09:20:40;7.37;;;1.37;;
20824;SDS011;10573;50.936;6.978;2023-02-03T09:23:05;6.60;;;1.50;;
20824;SDS011;10573;50.936;6.978;2023-02-03T09:25:31;4.70;;;1.10;;
20824;SDS011;10573;50.936;6.978;2023-02-03T09:27:59;5.28;;;1.25;;
20824;SDS011;10573;50.936;6.978;2023-02-03T09:30:25;4.35;;;1.20;;
20824;SDS011;10573;50.936;6.978;2023-02-03T09:32:54;4.35;;;1.30;;
20824;SDS011;10573;50.936;6.978;2023-02-03T09:35:20;8.50;;;2.03;;
20824;SDS011;10573;50.936;6.978;2023-02-03T09:37:46;6.45;;;1.55;;
20824;SDS011;10573;50.936;6.978;2023-02-03T09:40:17;8.45;;;1.88;;
20824;SDS011;10573;50.936;6.978;2023-02-03T09:42:54;3.90;;;1.70;;
20824;SDS011;10573;50.936;6.978;2023-02-03T09:45:28;5.45;;;1.30;;
20824;SDS011;10573;50.936;6.978;2023-02-03T09:48:01;5.97;;;1.75;;
20824;SDS011;10573;50.936;6.978;2023-02-03T09:50:35;5.47;;;1.30;;
20824;SDS011;10573;50.936;6.978;2023-02-03T09:53:07;5.70;;;1.67;;
20824;SDS011;10573;50.936;6.978;2023-02-03T09:55:50;8.10;;;1.63;;
20824;SDS011;10573;50.936;6.978;2023-02-03T09:58:16;5.80;;;1.30;;
20824;SDS011;10573;50.936;6.978;2023-02-03T10:00:46;5.63;;;1.70;;
20824;SDS011;10573;50.936;6.978;2023-02-03T10:11:51;4.65;;;1.67;;
20824;SDS011;10573;50.936;6.978;2023-02-03T10:23:01;5.32;;;2.08;;
20824;SDS011;10573;50.936;6.978;2023-02-03T10:28:30;8.57;;;2.40;;
20824;SDS011;10573;50.936;6.978;2023-02-03T10:31:00;5.72;;;2.28;;
20824;SDS011;10573;50.936;6.978;2023-02-03T10:33:32;7.68;;;2.17;;
20824;SDS011;10573;50.936;6.978;2023-02-03T10:38:37;5.07;;;1.80;;
20824;SDS011;10573;50.936;6.978;2023-02-03T10:41:17;4.70;;;1.70;;
20824;SDS011;10573;50.936;6.978;2023-02-03T10:43:48;4.47;;;1.70;;
20824;SDS011;10573;50.936;6.978;2023-02-03T10:49:00;4.38;;;1.58;;
20824;SDS011;10573;50.936;6.978;2023-02-03T10:51:32;4.70;;;2.15;;
20824;SDS011;10573;50.936;6.978;2023-02-03T10:54:19;7.97;;;2.10;;
20824;SDS011;10573;50.936;6.978;2023-02-03T10:56:51;5.13;;;1.83;;
20824;SDS011;10573;50.936;6.978;2023-02-03T10:59:28;4.53;;;2.13;;
20824;SDS011;10573;50.936;6.978;2023-02-03T11:01:55;3.15;;;1.73;;
20824;SDS011;10573;50.936;6.978;2023-02-03T11:04:22;5.03;;;1.70;;
20824;SDS011;10573;50.936;6.978;2023-02-03T11:06:59;7.05;;;2.00;;
20824;SDS011;10573;50.936;6.978;2023-02-03T11:09:28;4.95;;;2.25;;
20824;SDS011;10573;50.936;6.978;2023-02-03T11:12:30;5.25;;;1.98;;
20824;SDS011;10573;50.936;6.978;2023-02-03T11:14:52;4.78;;;2.00;;
20824;SDS011;10573;50.936;6.978;2023-02-03T11:17:18;5.53;;;2.47;;
20824;SDS011;10573;50.936;6.978;2023-02-03T11:19:54;5.60;;;2.20;;
20824;SDS011;10573;50.936;6.978;2023-02-03T11:22:32;5.10;;;2.10;;
20824;SDS011;10573;50.936;6.978;2023-02-03T11:25:01;2.83;;;2.03;;
20824;SDS011;10573;50.936;6.978;2023-02-03T11:27:30;5.13;;;2.28;;
20824;SDS011;10573;50.936;6.978;2023-02-03T11:30:12;5.75;;;2.30;;
20824;SDS011;10573;50.936;6.978;2023-02-03T11:32:40;3.38;;;2.55;;
20824;SDS011;10573;50.936;6.978;2023-02-03T11:35:17;5.60;;;2.67;;
20824;SDS011;10573;50.936;6.978;2023-02-03T11:37:50;4.57;;;2.70;;
20824;SDS011;10573;50.936;6.978;2023-02-03T11:47:49;6.00;;;3.88;;
20824;SDS011;10573;50.936;6.978;2023-02-03T12:09:24;6.20;;;4.10;;
20824;SDS011;10573;50.936;6.978;2023-02-03T12:12:20;6.50;;;4.50;;
20824;SDS011;10573;50.936;6.978;2023-02-03T12:20:40;7.32;;;4.53;;
20824;SDS011;10573;50.936;6.978;2023-02-03T12:26:14;8.25;;;4.80;;
20824;SDS011;10573;50.936;6.978;2023-02-03T12:28:49;8.00;;;4.43;;
20824;SDS011;10573;50.936;6.978;2023-02-03T12:37:04;6.30;;;4.90;;
20824;SDS011;10573;50.936;6.978;2023-02-03T12:42:04;9.27;;;5.22;;
20824;SDS011;10573;50.936;6.978;2023-02-03T12:47:53;8.40;;;5.47;;
20824;SDS011;10573;50.936;6.978;2023-02-03T12:50:26;9.93;;;5.30;;
20824;SDS011;10573;50.936;6.978;2023-02-03T12:53:23;8.52;;;5.72;;
20824;SDS011;10573;50.936;6.978;2023-02-03T12:55:59;7.68;;;5.05;;
20824;SDS011;10573;50.936;6.978;2023-02-03T12:58:46;11.88;;;5.43;;
20824;SDS011;10573;50.936;6.978;2023-02-03T13:01:27;12.10;;;6.40;;
20824;SDS011;10573;50.936;6.978;2023-02-03T13:12:05;14.27;;;5.55;;
20824;SDS011;10573;50.936;6.978;2023-02-03T13:14:45;11.18;;;5.60;;
20824;SDS011;10573;50.936;6.978;2023-02-03T13:17:21;10.27;;;6.13;;
20824;SDS011;10573;50.936;6.978;2023-02-03T13:19:55;12.17;;;7.03;;
20824;SDS011;10573;50.936;6.978;2023-02-03T13:22:24;13.83;;;7.03;;
20824;SDS011;10573;50.936;6.978;2023-02-03T13:27:41;14.23;;;7.25;;
20824;SDS011;10573;50.936;6.978;2023-02-03T13:33:12;14.70;;;7.57;;
20824;SDS011;10573;50.936;6.978;2023-02-03T13:41:46;13.15;;;8.25;;
20824;SDS011;10573;50.936;6.978;2023-02-03T13:44:19;13.98;;;7.65;;
20824;SDS011;10573;50.936;6.978;2023-02-03T13:46:57;16.88;;;8.35;;
20824;SDS011;10573;50.936;6.978;2023-02-03T13:49:27;13.18;;;8.25;;
20824;SDS011;10573;50.936;6.978;2023-02-03T13:51:55;15.73;;;8.73;;
20824;SDS011;10573;50.936;6.978;2023-02-03T13:54:29;17.75;;;8.32;;
20824;SDS011;10573;50.936;6.978;2023-02-03T13:57:02;15.40;;;8.33;;
20824;SDS011;10573;50.936;6.978;2023-02-03T13:59:43;13.10;;;7.87;;
20824;SDS011;10573;50.936;6.978;2023-02-03T14:12:58;16.30;;;8.18;;
20824;SDS011;10573;50.936;6.978;2023-02-03T14:15:28;14.68;;;8.35;;
20824;SDS011;10573;50.936;6.978;2023-02-03T14:18:00;16.00;;;8.20;;
20824;SDS011;10573;50.936;6.978;2023-02-03T14:20:47;18.20;;;8.95;;
20824;SDS011;10573;50.936;6.978;2023-02-03T14:23:16;15.00;;;8.55;;
20824;SDS011;10573;50.936;6.978;2023-02-03T14:25:48;15.30;;;7.40;;
20824;SDS011;10573;50.936;6.978;2023-02-03T14:29:00;11.18;;;7.07;;
20824;SDS011;10573;50.936;6.978;2023-02-03T14:31:26;12.30;;;7.32;;
20824;SDS011;10573;50.936;6.978;2023-02-03T14:36:45;10.75;;;7.03;;
20824;SDS011;10573;50.936;6.978;2023-02-03T14:41:55;14.20;;;7.07;;
20824;SDS011;10573;50.936;6.978;2023-02-03T14:50:30;15.18;;;6.72;;
20824;SDS011;10573;50.936;6.978;2023-02-03T14:58:25;9.45;;;5.30;;
20824;SDS011;10573;50.936;6.978;2023-02-03T15:00:54;9.75;;;4.85;;
20824;SDS011;10573;50.936;6.978;2023-02-03T15:03:20;9.00;;;4.73;;
20824;SDS011;10573;50.936;6.978;2023-02-03T15:05:50;10.57;;;4.75;;
20824;SDS011;10573;50.936;6.978;2023-02-03T15:11:24;9.40;;;4.20;;
20824;SDS011;10573;50.936;6.978;2023-02-03T15:13:56;8.83;;;4.00;;
20824;SDS011;10573;50.936;6.978;2023-02-03T15:16:39;8.23;;;4.13;;
20824;SDS011;10573;50.936;6.978;2023-02-03T15:19:14;10.82;;;3.75;;
20824;SDS011;10573;50.936;6.978;2023-02-03T15:21:41;11.68;;;3.95;;
20824;SDS011;10573;50.936;6.978;2023-02-03T15:24:17;11.53;;;4.13;;
20824;SDS011;10573;50.936;6.978;2023-02-03T15:26:53;9.57;;;3.92;;
20824;SDS011;10573;50.936;6.978;2023-02-03T15:29:31;9.67;;;3.40;;
20824;SDS011;10573;50.936;6.978;2023-02-03T15:32:02;11.45;;;4.25;;
20824;SDS011;10573;50.936;6.978;2023-02-03T15:34:37;9.48;;;4.07;;
20824;SDS011;10573;50.936;6.978;2023-02-03T15:37:41;10.63;;;4.40;;
20824;SDS011;10573;50.936;6.978;2023-02-03T15:40:01;10.53;;;4.47;;
20824;SDS011;10573;50.936;6.978;2023-02-03T15:48:05;13.80;;;5.30;;
20824;SDS011;10573;50.936;6.978;2023-02-03T15:50:35;14.43;;;6.30;;
20824;SDS011;10573;50.936;6.978;2023-02-03T15:53:09;12.88;;;5.72;;
20824;SDS011;10573;50.936;6.978;2023-02-03T15:55:52;13.03;;;4.80;;
20824;SDS011;10573;50.936;6.978;2023-02-03T15:58:22;9.63;;;4.50;;
20824;SDS011;10573;50.936;6.978;2023-02-03T16:01:00;12.68;;;4.20;;
20824;SDS011;10573;50.936;6.978;2023-02-03T16:03:39;13.35;;;3.75;;
20824;SDS011;10573;50.936;6.978;2023-02-03T16:08:47;13.73;;;4.93;;
20824;SDS011;10573;50.936;6.978;2023-02-03T16:11:19;12.55;;;5.00;;
20824;SDS011;10573;50.936;6.978;2023-02-03T16:13:45;8.98;;;4.10;;
20824;SDS011;10573;50.936;6.978;2023-02-03T16:18:52;11.88;;;4.38;;
20824;SDS011;10573;50.936;6.978;2023-02-03T16:21:24;7.40;;;3.72;;
20824;SDS011;10573;50.936;6.978;2023-02-03T16:23:51;7.93;;;3.58;;
20824;SDS011;10573;50.936;6.978;2023-02-03T16:26:18;14.63;;;4.20;;
20824;SDS011;10573;50.936;6.978;2023-02-03T16:31:52;9.50;;;3.60;;
20824;SDS011;10573;50.936;6.978;2023-02-03T16:34:36;10.07;;;3.97;;
20824;SDS011;10573;50.936;6.978;2023-02-03T16:40:09;10.40;;;3.50;;
20824;SDS011;10573;50.936;6.978;2023-02-03T16:42:55;10.60;;;3.95;;
20824;SDS011;10573;50.936;6.978;2023-02-03T16:45:39;13.45;;;3.90;;
20824;SDS011;10573;50.936;6.978;2023-02-03T16:48:23;12.10;;;4.20;;
20824;SDS011;10573;50.936;6.978;2023-02-03T16:51:14;12.97;;;4.53;;
20824;SDS011;10573;50.936;6.978;2023-02-03T16:53:41;12.73;;;3.88;;
20824;SDS011;10573;50.936;6.978;2023-02-03T16:56:09;13.98;;;4.50;;
20824;SDS011;10573;50.936;6.978;2023-02-03T16:58:35;11.27;;;3.50;;
20824;SDS011;10573;50.936;6.978;2023-02-03T17:01:02;13.77;;;4.00;;
20824;SDS011;10573;50.936;6.978;2023-02-03T17:03:29;11.00;;;4.10;;
20824;SDS011;10573;50.936;6.978;2023-02-03T17:06:00;11.65;;;3.70;;
20824;SDS011;10573;50.936;6.978;2023-02-03T17:08:27;13.60;;;3.70;;
20824;SDS011;10573;50.936;6.978;2023-02-03T17:10:53;10.90;;;3.90;;
20824;SDS011;10573;50.936;6.978;2023-02-03T17:13:20;22.00;;;4.77;;
20824;SDS011;10573;50.936;6.978;2023-02-03T17:15:47;18.42;;;4.47;;
20824;SDS011;10573;50.936;6.978;2023-02-03T17:18:16;12.95;;;3.03;;
20824;SDS011;10573;50.936;6.978;2023-02-03T17:20:43;14.65;;;3.47;;
20824;SDS011;10573;50.936;6.978;2023-02-03T17:23:10;13.90;;;3.07;;
20824;SDS011;10573;50.936;6.978;2023-02-03T17:25:36;13.75;;;3.45;;
20824;SDS011;10573;50.936;6.978;2023-02-03T17:28:04;13.77;;;2.78;;
20824;SDS011;10573;50.936;6.978;2023-02-03T17:30:31;14.25;;;3.25;;
20824;SDS011;10573;50.936;6.978;2023-02-03T17:33:00;12.95;;;2.78;;
20824;SDS011;10573;50.936;6.978;2023-02-03T17:35:27;15.40;;;3.00;;
20824;SDS011;10573;50.936;6.978;2023-02-03T17:37:53;12.43;;;2.87;;